首页
METAR-TAF:

METAR-TAF

机场 :

甲米機場

甲米市, 泰国

纬度: 08-06-03N, 经度: 098-59-05E, 海拔: 25米

当前天气观测

该预报发布于52分钟前的00:00 UTC
风速4节,风向东北,在之间变化
温度 23°C
湿度 94%
气压 1012 hPa
能見度: 7000
碎片雾

METAR: VTSG 220000Z 05004KT 010V090 7000 BCFG NSC 23/22 Q1012 NOSIG

时间: 07:52 (00:52 UTC)

预报

该预报发布于1小时和52分钟前的23:00 UTC
预报有效从22日的 00点(UTC)到 22日的 24点(UTC)
风速6节,风向
能见度10公里或以上
散云层高于2000英尺
成为
从 22日的 16点(UTC)到 22日的 18点(UTC)
风速2节,风向多变
成为
从 22日的 20点(UTC)到 22日的 22点(UTC)
能見度: 5000
轻雾

TAF: VTSG 212300Z 2200/2224 08006KT 9999 SCT020 BECMG 2216/2218 VRB02KT BECMG 2220/2222 5000 BR

超过4000个机场的气象观测和天气预报(METAR&TAF报告)。

可查询的气象台以黄色和红色小点在地图上表示。

将鼠标移到小点上方,可查看气象台名称。

然后点击查看天气观测和预报。

如需切换地图:点击带黑十字的绿色按钮放大地图;点击带横线的绿色按钮缩小地图;或者点击绿色箭头查看邻近地区的地图。


METAR-TAF: